sensor_id;sensor_type;location;lat;lon;timestamp;pressure;altitude;pressure_sealevel;temperature;humidity
52935;BME280;38802;50.198;19.796;2024-03-22T00:00:13;96344.37;;;8.01;76.77
52935;BME280;38802;50.198;19.796;2024-03-22T00:03:01;96346.94;;;8.02;76.98
52935;BME280;38802;50.198;19.796;2024-03-22T00:05:28;96344.83;;;8.00;77.24
52935;BME280;38802;50.198;19.796;2024-03-22T00:07:56;96345.53;;;8.00;77.62
52935;BME280;38802;50.198;19.796;2024-03-22T00:10:24;96346.38;;;7.97;77.84
52935;BME280;38802;50.198;19.796;2024-03-22T00:12:52;96350.26;;;7.97;78.20
52935;BME280;38802;50.198;19.796;2024-03-22T00:15:20;96347.73;;;7.98;78.83
52935;BME280;38802;50.198;19.796;2024-03-22T00:17:47;96348.04;;;7.99;78.92
52935;BME280;38802;50.198;19.796;2024-03-22T00:20:15;96344.84;;;8.00;79.64
52935;BME280;38802;50.198;19.796;2024-03-22T00:22:43;96341.38;;;8.00;79.97
52935;BME280;38802;50.198;19.796;2024-03-22T00:25:11;96344.95;;;7.98;80.29
52935;BME280;38802;50.198;19.796;2024-03-22T00:27:39;96345.77;;;7.96;80.51
52935;BME280;38802;50.198;19.796;2024-03-22T00:30:07;96340.48;;;7.96;81.03
52935;BME280;38802;50.198;19.796;2024-03-22T00:32:35;96339.84;;;7.95;81.12
52935;BME280;38802;50.198;19.796;2024-03-22T00:35:03;96337.48;;;7.94;81.50
52935;BME280;38802;50.198;19.796;2024-03-22T00:37:31;96336.52;;;7.95;81.81
52935;BME280;38802;50.198;19.796;2024-03-22T00:39:58;96335.09;;;7.98;82.35
52935;BME280;38802;50.198;19.796;2024-03-22T00:42:26;96336.27;;;7.98;82.58
52935;BME280;38802;50.198;19.796;2024-03-22T00:44:54;96334.30;;;7.99;82.85
52935;BME280;38802;50.198;19.796;2024-03-22T00:47:22;96336.14;;;8.00;83.38
52935;BME280;38802;50.198;19.796;2024-03-22T00:49:50;96334.52;;;8.01;83.60
52935;BME280;38802;50.198;19.796;2024-03-22T00:52:18;96333.73;;;8.00;83.77
52935;BME280;38802;50.198;19.796;2024-03-22T00:54:45;96331.02;;;7.99;83.86
52935;BME280;38802;50.198;19.796;2024-03-22T00:57:13;96332.79;;;7.99;84.06
52935;BME280;38802;50.198;19.796;2024-03-22T00:59:41;96326.91;;;7.99;84.30
52935;BME280;38802;50.198;19.796;2024-03-22T01:02:08;96326.91;;;7.99;84.65
52935;BME280;38802;50.198;19.796;2024-03-22T01:04:36;96324.48;;;7.99;85.12
52935;BME280;38802;50.198;19.796;2024-03-22T01:07:04;96323.36;;;8.00;85.28
52935;BME280;38802;50.198;19.796;2024-03-22T01:09:32;96323.56;;;8.00;85.37
52935;BME280;38802;50.198;19.796;2024-03-22T01:11:59;96326.17;;;8.02;85.86
52935;BME280;38802;50.198;19.796;2024-03-22T01:14:27;96325.30;;;8.02;86.28
52935;BME280;38802;50.198;19.796;2024-03-22T01:16:55;96322.19;;;8.02;86.59
52935;BME280;38802;50.198;19.796;2024-03-22T01:19:23;96318.06;;;8.01;86.40
52935;BME280;38802;50.198;19.796;2024-03-22T01:21:51;96320.27;;;8.04;87.33
52935;BME280;38802;50.198;19.796;2024-03-22T01:24:18;96317.25;;;8.03;87.63
52935;BME280;38802;50.198;19.796;2024-03-22T01:26:46;96319.92;;;8.04;88.02
52935;BME280;38802;50.198;19.796;2024-03-22T01:29:14;96318.57;;;8.04;88.28
52935;BME280;38802;50.198;19.796;2024-03-22T01:31:41;96317.47;;;8.05;88.75
52935;BME280;38802;50.198;19.796;2024-03-22T01:34:09;96318.80;;;8.03;88.72
52935;BME280;38802;50.198;19.796;2024-03-22T01:36:37;96321.20;;;8.01;88.58
52935;BME280;38802;50.198;19.796;2024-03-22T01:39:05;96318.13;;;8.01;89.17
52935;BME280;38802;50.198;19.796;2024-03-22T01:41:32;96317.39;;;8.04;89.98
52935;BME280;38802;50.198;19.796;2024-03-22T01:44:00;96315.25;;;8.05;90.15
52935;BME280;38802;50.198;19.796;2024-03-22T01:46:28;96315.25;;;8.05;90.24
52935;BME280;38802;50.198;19.796;2024-03-22T01:48:56;96309.91;;;8.04;90.99
52935;BME280;38802;50.198;19.796;2024-03-22T01:51:24;96310.97;;;8.06;91.36
52935;BME280;38802;50.198;19.796;2024-03-22T01:53:52;96312.61;;;8.05;91.32
52935;BME280;38802;50.198;19.796;2024-03-22T01:56:21;96309.53;;;8.07;92.07
52935;BME280;38802;50.198;19.796;2024-03-22T01:58:49;96313.77;;;8.06;92.11
52935;BME280;38802;50.198;19.796;2024-03-22T02:01:18;96313.98;;;8.03;92.01
52935;BME280;38802;50.198;19.796;2024-03-22T02:03:46;96312.55;;;8.04;92.49
52935;BME280;38802;50.198;19.796;2024-03-22T02:06:13;96315.83;;;8.04;92.61
52935;BME280;38802;50.198;19.796;2024-03-22T02:08:42;96315.88;;;8.03;92.66
52935;BME280;38802;50.198;19.796;2024-03-22T02:11:12;96316.09;;;8.02;93.34
52935;BME280;38802;50.198;19.796;2024-03-22T02:13:41;96316.90;;;8.01;92.76
52935;BME280;38802;50.198;19.796;2024-03-22T02:16:13;96319.75;;;8.00;92.94
52935;BME280;38802;50.198;19.796;2024-03-22T02:18:41;96315.92;;;8.03;93.55
52935;BME280;38802;50.198;19.796;2024-03-22T02:21:09;96318.70;;;8.00;93.48
52935;BME280;38802;50.198;19.796;2024-03-22T02:23:38;96321.08;;;8.01;93.83
52935;BME280;38802;50.198;19.796;2024-03-22T02:26:07;96323.83;;;7.98;94.43
52935;BME280;38802;50.198;19.796;2024-03-22T02:28:36;96325.94;;;7.98;94.33
52935;BME280;38802;50.198;19.796;2024-03-22T02:31:04;96324.21;;;7.98;94.46
52935;BME280;38802;50.198;19.796;2024-03-22T02:33:32;96322.52;;;7.97;94.72
52935;BME280;38802;50.198;19.796;2024-03-22T02:36:00;96322.23;;;7.97;94.79
52935;BME280;38802;50.198;19.796;2024-03-22T02:38:27;96321.61;;;7.96;95.07
52935;BME280;38802;50.198;19.796;2024-03-22T02:40:57;96321.30;;;7.95;95.16
52935;BME280;38802;50.198;19.796;2024-03-22T02:43:25;96322.12;;;7.98;96.35
52935;BME280;38802;50.198;19.796;2024-03-22T02:45:53;96326.37;;;7.94;96.30
52935;BME280;38802;50.198;19.796;2024-03-22T02:48:21;96327.23;;;7.94;96.59
52935;BME280;38802;50.198;19.796;2024-03-22T02:50:48;96331.09;;;7.94;96.62
52935;BME280;38802;50.198;19.796;2024-03-22T02:53:16;96331.70;;;7.95;96.73
52935;BME280;38802;50.198;19.796;2024-03-22T02:55:44;96330.02;;;7.94;96.83
52935;BME280;38802;50.198;19.796;2024-03-22T02:58:11;96329.42;;;7.97;97.45
52935;BME280;38802;50.198;19.796;2024-03-22T03:00:39;96331.27;;;7.98;97.38
52935;BME280;38802;50.198;19.796;2024-03-22T03:03:07;96326.95;;;8.01;97.78
52935;BME280;38802;50.198;19.796;2024-03-22T03:05:35;96328.52;;;8.00;97.79
52935;BME280;38802;50.198;19.796;2024-03-22T03:08:03;96328.30;;;8.01;97.93
52935;BME280;38802;50.198;19.796;2024-03-22T03:10:31;96325.59;;;8.03;98.19
52935;BME280;38802;50.198;19.796;2024-03-22T03:12:58;96326.29;;;8.05;98.88
52935;BME280;38802;50.198;19.796;2024-03-22T03:15:26;96321.70;;;8.01;98.28
52935;BME280;38802;50.198;19.796;2024-03-22T03:17:54;96321.08;;;8.01;98.20
52935;BME280;38802;50.198;19.796;2024-03-22T03:20:22;96318.33;;;8.03;98.59
52935;BME280;38802;50.198;19.796;2024-03-22T03:22:49;96313.73;;;8.04;99.12
52935;BME280;38802;50.198;19.796;2024-03-22T03:25:17;96316.08;;;8.00;98.79
52935;BME280;38802;50.198;19.796;2024-03-22T03:27:45;96315.16;;;7.99;98.75
52935;BME280;38802;50.198;19.796;2024-03-22T03:30:13;96311.67;;;7.99;99.11
52935;BME280;38802;50.198;19.796;2024-03-22T03:32:41;96311.91;;;7.98;99.71
52935;BME280;38802;50.198;19.796;2024-03-22T03:35:08;96311.55;;;7.96;99.78
52935;BME280;38802;50.198;19.796;2024-03-22T03:37:36;96309.02;;;7.95;99.97
52935;BME280;38802;50.198;19.796;2024-03-22T03:40:05;96308.79;;;7.91;99.89
52935;BME280;38802;50.198;19.796;2024-03-22T03:42:32;96310.05;;;7.88;99.62
52935;BME280;38802;50.198;19.796;2024-03-22T03:45:00;96305.61;;;7.87;99.94
52935;BME280;38802;50.198;19.796;2024-03-22T03:47:28;96299.65;;;7.88;100.00
52935;BME280;38802;50.198;19.796;2024-03-22T03:49:56;96306.36;;;7.86;100.00
52935;BME280;38802;50.198;19.796;2024-03-22T03:52:24;96303.75;;;7.86;100.00
52935;BME280;38802;50.198;19.796;2024-03-22T03:54:51;96305.27;;;7.84;99.98
52935;BME280;38802;50.198;19.796;2024-03-22T03:57:19;96306.39;;;7.83;99.99
52935;BME280;38802;50.198;19.796;2024-03-22T03:59:47;96304.54;;;7.85;100.00
52935;BME280;38802;50.198;19.796;2024-03-22T04:02:14;96307.23;;;7.83;100.00
52935;BME280;38802;50.198;19.796;2024-03-22T04:04:42;96304.12;;;7.81;100.00
52935;BME280;38802;50.198;19.796;2024-03-22T04:07:10;96302.19;;;7.79;100.00
52935;BME280;38802;50.198;19.796;2024-03-22T04:09:37;96305.14;;;7.79;100.00
52935;BME280;38802;50.198;19.796;2024-03-22T04:12:05;96304.77;;;7.74;100.00
52935;BME280;38802;50.198;19.796;2024-03-22T04:14:33;96302.91;;;7.68;100.00
52935;BME280;38802;50.198;19.796;2024-03-22T04:17:01;96304.41;;;7.67;100.00
52935;BME280;38802;50.198;19.796;2024-03-22T04:19:28;96302.19;;;7.67;100.00
52935;BME280;38802;50.198;19.796;2024-03-22T04:21:56;96305.95;;;7.65;100.00
52935;BME280;38802;50.198;19.796;2024-03-22T04:24:24;96308.21;;;7.62;100.00
52935;BME280;38802;50.198;19.796;2024-03-22T04:26:52;96308.40;;;7.62;100.00
52935;BME280;38802;50.198;19.796;2024-03-22T04:29:20;96309.04;;;7.62;100.00
52935;BME280;38802;50.198;19.796;2024-03-22T04:31:47;96306.96;;;7.60;100.00
52935;BME280;38802;50.198;19.796;2024-03-22T04:34:15;96307.70;;;7.59;100.00
52935;BME280;38802;50.198;19.796;2024-03-22T04:36:43;96304.17;;;7.60;100.00
52935;BME280;38802;50.198;19.796;2024-03-22T04:39:11;96307.77;;;7.61;100.00
52935;BME280;38802;50.198;19.796;2024-03-22T04:41:39;96307.29;;;7.60;100.00
52935;BME280;38802;50.198;19.796;2024-03-22T04:44:08;96305.59;;;7.60;100.00
52935;BME280;38802;50.198;19.796;2024-03-22T04:46:35;96305.02;;;7.61;100.00
52935;BME280;38802;50.198;19.796;2024-03-22T04:49:03;96304.42;;;7.59;100.00
52935;BME280;38802;50.198;19.796;2024-03-22T04:51:31;96306.33;;;7.59;100.00
52935;BME280;38802;50.198;19.796;2024-03-22T04:53:58;96307.60;;;7.55;100.00
52935;BME280;38802;50.198;19.796;2024-03-22T04:56:26;96306.41;;;7.55;100.00
52935;BME280;38802;50.198;19.796;2024-03-22T04:58:54;96313.06;;;7.54;100.00
52935;BME280;38802;50.198;19.796;2024-03-22T05:01:22;96315.66;;;7.52;100.00
52935;BME280;38802;50.198;19.796;2024-03-22T05:03:51;96316.72;;;7.51;100.00
52935;BME280;38802;50.198;19.796;2024-03-22T05:06:19;96319.50;;;7.51;100.00
52935;BME280;38802;50.198;19.796;2024-03-22T05:08:47;96319.52;;;7.51;100.00
52935;BME280;38802;50.198;19.796;2024-03-22T05:11:15;96319.13;;;7.52;100.00
52935;BME280;38802;50.198;19.796;2024-03-22T05:13:42;96315.88;;;7.53;100.00
52935;BME280;38802;50.198;19.796;2024-03-22T05:16:10;96317.68;;;7.57;100.00
52935;BME280;38802;50.198;19.796;2024-03-22T05:18:39;96324.23;;;7.63;100.00
52935;BME280;38802;50.198;19.796;2024-03-22T05:21:07;96334.88;;;7.64;100.00
52935;BME280;38802;50.198;19.796;2024-03-22T05:23:35;96342.27;;;7.64;100.00
52935;BME280;38802;50.198;19.796;2024-03-22T05:26:03;96342.55;;;7.65;100.00
52935;BME280;38802;50.198;19.796;2024-03-22T05:28:31;96341.92;;;7.67;100.00
52935;BME280;38802;50.198;19.796;2024-03-22T05:30:59;96335.76;;;7.68;100.00
52935;BME280;38802;50.198;19.796;2024-03-22T05:33:27;96333.39;;;7.70;100.00
52935;BME280;38802;50.198;19.796;2024-03-22T05:35:55;96334.50;;;7.74;100.00
52935;BME280;38802;50.198;19.796;2024-03-22T05:38:23;96333.34;;;7.76;100.00
52935;BME280;38802;50.198;19.796;2024-03-22T05:40:50;96325.63;;;7.77;100.00
52935;BME280;38802;50.198;19.796;2024-03-22T05:43:18;96319.35;;;7.75;100.00
52935;BME280;38802;50.198;19.796;2024-03-22T05:45:46;96322.65;;;7.78;100.00
52935;BME280;38802;50.198;19.796;2024-03-22T05:48:13;96324.63;;;7.82;100.00
52935;BME280;38802;50.198;19.796;2024-03-22T05:50:41;96327.02;;;7.82;100.00
52935;BME280;38802;50.198;19.796;2024-03-22T05:53:09;96325.26;;;7.83;100.00
52935;BME280;38802;50.198;19.796;2024-03-22T05:55:36;96325.30;;;7.85;100.00
52935;BME280;38802;50.198;19.796;2024-03-22T05:58:05;96325.16;;;7.87;100.00
52935;BME280;38802;50.198;19.796;2024-03-22T06:00:33;96329.02;;;7.91;100.00
52935;BME280;38802;50.198;19.796;2024-03-22T06:03:01;96327.59;;;7.94;100.00
52935;BME280;38802;50.198;19.796;2024-03-22T06:05:28;96331.14;;;7.98;100.00
52935;BME280;38802;50.198;19.796;2024-03-22T06:07:56;96331.20;;;7.99;100.00
52935;BME280;38802;50.198;19.796;2024-03-22T06:10:24;96327.81;;;8.03;100.00
52935;BME280;38802;50.198;19.796;2024-03-22T06:12:51;96326.94;;;8.03;100.00
52935;BME280;38802;50.198;19.796;2024-03-22T06:15:20;96322.39;;;8.04;100.00
52935;BME280;38802;50.198;19.796;2024-03-22T06:17:49;96324.52;;;8.05;100.00
52935;BME280;38802;50.198;19.796;2024-03-22T06:20:17;96326.10;;;8.08;100.00
52935;BME280;38802;50.198;19.796;2024-03-22T06:22:45;96328.38;;;8.10;100.00
52935;BME280;38802;50.198;19.796;2024-03-22T06:25:13;96327.74;;;8.11;100.00
52935;BME280;38802;50.198;19.796;2024-03-22T06:27:41;96328.73;;;8.14;100.00
52935;BME280;38802;50.198;19.796;2024-03-22T06:30:12;96330.99;;;8.14;100.00
52935;BME280;38802;50.198;19.796;2024-03-22T06:32:40;96330.77;;;8.15;100.00
52935;BME280;38802;50.198;19.796;2024-03-22T06:35:07;96329.83;;;8.18;100.00
52935;BME280;38802;50.198;19.796;2024-03-22T06:37:35;96325.30;;;8.21;100.00
52935;BME280;38802;50.198;19.796;2024-03-22T06:40:03;96325.89;;;8.26;100.00
52935;BME280;38802;50.198;19.796;2024-03-22T06:42:32;96327.86;;;8.27;100.00
52935;BME280;38802;50.198;19.796;2024-03-22T06:45:00;96322.91;;;8.29;100.00
52935;BME280;38802;50.198;19.796;2024-03-22T06:47:28;96325.07;;;8.27;100.00
52935;BME280;38802;50.198;19.796;2024-03-22T06:49:55;96322.89;;;8.29;100.00
52935;BME280;38802;50.198;19.796;2024-03-22T06:52:23;96326.71;;;8.29;100.00
52935;BME280;38802;50.198;19.796;2024-03-22T06:54:51;96327.46;;;8.25;100.00
52935;BME280;38802;50.198;19.796;2024-03-22T06:57:20;96327.20;;;8.24;100.00
52935;BME280;38802;50.198;19.796;2024-03-22T06:59:48;96327.91;;;8.21;100.00
52935;BME280;38802;50.198;19.796;2024-03-22T07:02:16;96329.56;;;8.20;100.00
52935;BME280;38802;50.198;19.796;2024-03-22T07:04:46;96326.71;;;8.21;100.00
52935;BME280;38802;50.198;19.796;2024-03-22T07:07:13;96323.86;;;8.22;100.00
52935;BME280;38802;50.198;19.796;2024-03-22T07:09:41;96321.84;;;8.19;100.00
52935;BME280;38802;50.198;19.796;2024-03-22T07:12:11;96325.23;;;8.17;100.00
52935;BME280;38802;50.198;19.796;2024-03-22T07:14:39;96329.33;;;8.15;100.00
52935;BME280;38802;50.198;19.796;2024-03-22T07:17:06;96327.92;;;8.18;100.00
52935;BME280;38802;50.198;19.796;2024-03-22T07:19:34;96329.54;;;8.20;100.00
52935;BME280;38802;50.198;19.796;2024-03-22T07:22:02;96325.86;;;8.20;100.00
52935;BME280;38802;50.198;19.796;2024-03-22T07:24:30;96325.63;;;8.22;100.00
52935;BME280;38802;50.198;19.796;2024-03-22T07:26:58;96325.44;;;8.22;100.00
52935;BME280;38802;50.198;19.796;2024-03-22T07:29:26;96322.59;;;8.20;100.00
52935;BME280;38802;50.198;19.796;2024-03-22T07:31:53;96321.13;;;8.16;100.00
52935;BME280;38802;50.198;19.796;2024-03-22T07:34:21;96324.01;;;8.15;100.00
52935;BME280;38802;50.198;19.796;2024-03-22T07:36:49;96323.09;;;8.13;100.00
52935;BME280;38802;50.198;19.796;2024-03-22T07:39:17;96325.27;;;8.12;100.00
52935;BME280;38802;50.198;19.796;2024-03-22T07:41:45;96321.38;;;8.13;100.00
52935;BME280;38802;50.198;19.796;2024-03-22T07:44:13;96312.33;;;8.16;100.00
52935;BME280;38802;50.198;19.796;2024-03-22T07:46:41;96308.20;;;8.21;100.00
52935;BME280;38802;50.198;19.796;2024-03-22T07:49:08;96305.44;;;8.26;100.00
52935;BME280;38802;50.198;19.796;2024-03-22T07:51:36;96304.32;;;8.29;100.00
52935;BME280;38802;50.198;19.796;2024-03-22T07:54:04;96303.24;;;8.32;100.00
52935;BME280;38802;50.198;19.796;2024-03-22T07:56:32;96299.84;;;8.34;100.00
52935;BME280;38802;50.198;19.796;2024-03-22T07:59:00;96301.16;;;8.35;100.00
52935;BME280;38802;50.198;19.796;2024-03-22T08:01:28;96301.17;;;8.37;100.00
52935;BME280;38802;50.198;19.796;2024-03-22T08:03:56;96298.20;;;8.42;100.00
52935;BME280;38802;50.198;19.796;2024-03-22T08:06:24;96297.20;;;8.46;100.00
52935;BME280;38802;50.198;19.796;2024-03-22T08:08:52;96296.24;;;8.50;100.00
52935;BME280;38802;50.198;19.796;2024-03-22T08:11:20;96293.59;;;8.56;100.00
52935;BME280;38802;50.198;19.796;2024-03-22T08:13:48;96293.98;;;8.60;100.00
52935;BME280;38802;50.198;19.796;2024-03-22T08:16:15;96292.19;;;8.65;100.00
52935;BME280;38802;50.198;19.796;2024-03-22T08:18:43;96291.80;;;8.71;100.00
52935;BME280;38802;50.198;19.796;2024-03-22T08:21:11;96288.05;;;8.75;100.00
52935;BME280;38802;50.198;19.796;2024-03-22T08:23:39;96291.09;;;8.73;100.00
52935;BME280;38802;50.198;19.796;2024-03-22T08:26:08;96289.00;;;8.73;100.00
52935;BME280;38802;50.198;19.796;2024-03-22T08:28:36;96287.27;;;8.71;100.00
52935;BME280;38802;50.198;19.796;2024-03-22T08:31:08;96291.88;;;8.68;100.00
52935;BME280;38802;50.198;19.796;2024-03-22T08:33:36;96292.95;;;8.67;100.00
52935;BME280;38802;50.198;19.796;2024-03-22T08:36:04;96292.81;;;8.69;100.00
52935;BME280;38802;50.198;19.796;2024-03-22T08:38:32;96292.50;;;8.73;100.00
52935;BME280;38802;50.198;19.796;2024-03-22T08:41:01;96290.38;;;8.78;100.00
52935;BME280;38802;50.198;19.796;2024-03-22T08:43:28;96291.29;;;8.82;100.00
52935;BME280;38802;50.198;19.796;2024-03-22T08:45:56;96292.67;;;8.85;100.00
52935;BME280;38802;50.198;19.796;2024-03-22T08:48:25;96293.08;;;8.89;100.00
52935;BME280;38802;50.198;19.796;2024-03-22T08:50:53;96295.02;;;8.88;100.00
52935;BME280;38802;50.198;19.796;2024-03-22T08:53:21;96297.77;;;8.86;100.00
52935;BME280;38802;50.198;19.796;2024-03-22T08:55:50;96298.23;;;8.84;100.00
52935;BME280;38802;50.198;19.796;2024-03-22T08:58:18;96295.07;;;8.80;99.90
52935;BME280;38802;50.198;19.796;2024-03-22T09:00:46;96296.16;;;8.70;99.90
52935;BME280;38802;50.198;19.796;2024-03-22T09:03:14;96295.78;;;8.71;99.59
52935;BME280;38802;50.198;19.796;2024-03-22T09:05:42;96293.58;;;8.70;99.38
52935;BME280;38802;50.198;19.796;2024-03-22T09:08:23;96292.29;;;8.73;99.96
52935;BME280;38802;50.198;19.796;2024-03-22T09:10:51;96290.09;;;8.82;99.83
52935;BME280;38802;50.198;19.796;2024-03-22T09:13:18;96289.90;;;8.94;99.69
52935;BME280;38802;50.198;19.796;2024-03-22T09:15:56;96290.98;;;9.07;99.12
52935;BME280;38802;50.198;19.796;2024-03-22T09:18:24;96293.25;;;9.14;98.76
52935;BME280;38802;50.198;19.796;2024-03-22T09:20:53;96292.14;;;9.12;98.28
52935;BME280;38802;50.198;19.796;2024-03-22T09:23:27;96294.56;;;9.10;97.93
52935;BME280;38802;50.198;19.796;2024-03-22T09:25:55;96289.98;;;9.06;97.20
52935;BME280;38802;50.198;19.796;2024-03-22T09:28:23;96292.84;;;8.98;97.06
52935;BME280;38802;50.198;19.796;2024-03-22T09:30:51;96291.05;;;8.92;96.95
52935;BME280;38802;50.198;19.796;2024-03-22T09:33:26;96295.04;;;8.88;96.69
52935;BME280;38802;50.198;19.796;2024-03-22T09:35:54;96295.27;;;8.78;97.07
52935;BME280;38802;50.198;19.796;2024-03-22T09:38:22;96292.75;;;8.77;97.11
52935;BME280;38802;50.198;19.796;2024-03-22T09:40:50;96288.90;;;8.77;96.82
52935;BME280;38802;50.198;19.796;2024-03-22T09:43:22;96291.23;;;8.74;96.95
52935;BME280;38802;50.198;19.796;2024-03-22T09:45:49;96292.05;;;8.72;97.16
52935;BME280;38802;50.198;19.796;2024-03-22T09:48:20;96292.23;;;8.77;97.41
52935;BME280;38802;50.198;19.796;2024-03-22T09:50:49;96288.65;;;8.83;97.15
52935;BME280;38802;50.198;19.796;2024-03-22T09:53:18;96288.82;;;8.83;97.34
52935;BME280;38802;50.198;19.796;2024-03-22T09:55:49;96281.85;;;8.86;97.24
52935;BME280;38802;50.198;19.796;2024-03-22T09:58:17;96279.39;;;8.91;97.05
52935;BME280;38802;50.198;19.796;2024-03-22T10:00:46;96279.70;;;8.96;97.34
52935;BME280;38802;50.198;19.796;2024-03-22T10:03:14;96282.77;;;9.10;96.96
52935;BME280;38802;50.198;19.796;2024-03-22T10:05:41;96283.02;;;9.19;96.99
52935;BME280;38802;50.198;19.796;2024-03-22T10:08:12;96280.11;;;9.25;96.89
52935;BME280;38802;50.198;19.796;2024-03-22T10:10:41;96278.93;;;9.29;96.43
52935;BME280;38802;50.198;19.796;2024-03-22T10:13:09;96278.55;;;9.25;96.27
52935;BME280;38802;50.198;19.796;2024-03-22T10:15:37;96282.06;;;9.22;96.30
52935;BME280;38802;50.198;19.796;2024-03-22T10:18:05;96278.84;;;9.23;96.25
52935;BME280;38802;50.198;19.796;2024-03-22T10:20:33;96279.83;;;9.22;95.89
52935;BME280;38802;50.198;19.796;2024-03-22T10:23:00;96279.85;;;9.17;95.93
52935;BME280;38802;50.198;19.796;2024-03-22T10:25:29;96279.64;;;9.16;96.03
52935;BME280;38802;50.198;19.796;2024-03-22T10:27:56;96274.04;;;9.20;96.31
52935;BME280;38802;50.198;19.796;2024-03-22T10:30:27;96266.52;;;9.28;96.17
52935;BME280;38802;50.198;19.796;2024-03-22T10:32:55;96260.09;;;9.37;96.34
52935;BME280;38802;50.198;19.796;2024-03-22T10:35:25;96251.96;;;9.48;96.23
52935;BME280;38802;50.198;19.796;2024-03-22T10:37:54;96248.86;;;9.57;95.52
52935;BME280;38802;50.198;19.796;2024-03-22T10:40:22;96246.69;;;9.56;95.62
52935;BME280;38802;50.198;19.796;2024-03-22T10:42:50;96247.81;;;9.59;95.73
52935;BME280;38802;50.198;19.796;2024-03-22T10:45:18;96245.13;;;9.67;95.36
52935;BME280;38802;50.198;19.796;2024-03-22T10:47:51;96239.58;;;9.76;95.23
52935;BME280;38802;50.198;19.796;2024-03-22T10:50:21;96238.31;;;9.81;95.37
52935;BME280;38802;50.198;19.796;2024-03-22T10:53:01;96237.10;;;9.91;94.64
52935;BME280;38802;50.198;19.796;2024-03-22T10:55:33;96236.71;;;9.94;94.37
52935;BME280;38802;50.198;19.796;2024-03-22T10:58:02;96232.70;;;9.92;94.47
52935;BME280;38802;50.198;19.796;2024-03-22T11:00:32;96234.13;;;9.94;94.09
52935;BME280;38802;50.198;19.796;2024-03-22T11:03:03;96234.17;;;9.91;93.88
52935;BME280;38802;50.198;19.796;2024-03-22T11:05:31;96226.73;;;9.87;93.84
52935;BME280;38802;50.198;19.796;2024-03-22T11:08:03;96227.80;;;9.84;93.92
52935;BME280;38802;50.198;19.796;2024-03-22T11:10:35;96224.02;;;9.84;94.01
52935;BME280;38802;50.198;19.796;2024-03-22T11:13:04;96224.45;;;9.85;93.87
52935;BME280;38802;50.198;19.796;2024-03-22T11:15:33;96221.71;;;9.89;93.67
52935;BME280;38802;50.198;19.796;2024-03-22T11:18:02;96218.03;;;9.91;93.81
52935;BME280;38802;50.198;19.796;2024-03-22T11:20:30;96216.35;;;9.92;93.60
52935;BME280;38802;50.198;19.796;2024-03-22T11:22:58;96213.30;;;9.92;93.49
52935;BME280;38802;50.198;19.796;2024-03-22T11:25:26;96206.81;;;9.93;93.24
52935;BME280;38802;50.198;19.796;2024-03-22T11:27:55;96203.36;;;9.90;93.22
52935;BME280;38802;50.198;19.796;2024-03-22T11:30:26;96201.40;;;9.91;93.20
52935;BME280;38802;50.198;19.796;2024-03-22T11:32:54;96196.67;;;9.96;93.27
52935;BME280;38802;50.198;19.796;2024-03-22T11:35:22;96193.81;;;10.01;93.06
52935;BME280;38802;50.198;19.796;2024-03-22T11:37:50;96191.27;;;10.07;92.81
52935;BME280;38802;50.198;19.796;2024-03-22T11:40:18;96182.55;;;10.10;92.59
52935;BME280;38802;50.198;19.796;2024-03-22T11:42:47;96182.73;;;10.07;92.50
52935;BME280;38802;50.198;19.796;2024-03-22T11:45:17;96172.50;;;10.11;92.82
52935;BME280;38802;50.198;19.796;2024-03-22T11:47:47;96171.54;;;10.23;92.83
52935;BME280;38802;50.198;19.796;2024-03-22T11:50:15;96167.69;;;10.41;92.84
52935;BME280;38802;50.198;19.796;2024-03-22T11:52:44;96165.88;;;10.58;92.34
52935;BME280;38802;50.198;19.796;2024-03-22T11:55:14;96161.14;;;10.69;91.93
52935;BME280;38802;50.198;19.796;2024-03-22T11:57:48;96160.35;;;10.75;92.11
52935;BME280;38802;50.198;19.796;2024-03-22T12:00:18;96156.81;;;10.83;91.62
52935;BME280;38802;50.198;19.796;2024-03-22T12:03:06;96155.56;;;10.88;91.04
52935;BME280;38802;50.198;19.796;2024-03-22T12:05:34;96149.95;;;10.91;90.32
52935;BME280;38802;50.198;19.796;2024-03-22T12:08:02;96149.94;;;10.89;89.74
52935;BME280;38802;50.198;19.796;2024-03-22T12:10:30;96148.25;;;10.84;89.73
52935;BME280;38802;50.198;19.796;2024-03-22T12:12:57;96143.09;;;10.86;89.81
52935;BME280;38802;50.198;19.796;2024-03-22T12:15:25;96136.73;;;10.87;89.05
52935;BME280;38802;50.198;19.796;2024-03-22T12:17:53;96138.14;;;10.87;89.41
52935;BME280;38802;50.198;19.796;2024-03-22T12:20:21;96132.09;;;10.92;89.49
52935;BME280;38802;50.198;19.796;2024-03-22T12:22:49;96131.70;;;10.97;89.29
52935;BME280;38802;50.198;19.796;2024-03-22T12:25:17;96134.99;;;10.99;88.68
52935;BME280;38802;50.198;19.796;2024-03-22T12:27:46;96131.90;;;11.01;88.56
52935;BME280;38802;50.198;19.796;2024-03-22T12:30:14;96131.80;;;11.02;88.61
52935;BME280;38802;50.198;19.796;2024-03-22T12:32:42;96130.33;;;11.07;88.53
52935;BME280;38802;50.198;19.796;2024-03-22T12:35:12;96129.63;;;11.11;88.45
52935;BME280;38802;50.198;19.796;2024-03-22T12:37:40;96129.02;;;11.08;88.08
52935;BME280;38802;50.198;19.796;2024-03-22T12:40:08;96130.98;;;11.05;87.95
52935;BME280;38802;50.198;19.796;2024-03-22T12:42:37;96124.35;;;10.99;87.99
52935;BME280;38802;50.198;19.796;2024-03-22T12:45:05;96119.11;;;10.99;87.81
52935;BME280;38802;50.198;19.796;2024-03-22T12:47:34;96119.46;;;10.98;87.51
52935;BME280;38802;50.198;19.796;2024-03-22T12:50:05;96116.23;;;10.95;87.54
52935;BME280;38802;50.198;19.796;2024-03-22T12:52:33;96119.54;;;10.97;87.41
52935;BME280;38802;50.198;19.796;2024-03-22T12:55:01;96115.48;;;10.93;87.48
52935;BME280;38802;50.198;19.796;2024-03-22T12:57:29;96113.48;;;10.90;87.15
52935;BME280;38802;50.198;19.796;2024-03-22T12:59:57;96112.85;;;10.90;87.46